Hilda Lab — WKDT — position and weather

sailwx.info

Track history (hours):
 
Tides and Currents Weather Stations Pressure Air Temp Water Temp Dewpoint Dewpoint Depression Visibility Wind Speed Wind Dir Waves Ship Positions

Hilda Lab

Owner: LABORDE MARINE SERVICES LLC, MORGAN CITY, LA. More information available from US FCC via Universal Licensing System and Coast Guard Vessel Documentation Center.

Last reported at 2018-Jul-22 06:53 UTC. Time now 2018-Jul-22 12:33 UTC.
Position N 28°59' W 090°13'.

Length 87 m; draft 4 m.

Type: . MMSI: 338536000.

Date/timePositionNaut miles runAvg speedWind from/ knotsBaromVisibWave heightAir tempDewpointWater temp
2018-Jul-22 06:53N 28°59' W 090°13'510.2
2018-Jul-22 06:27N 29°03' W 090°14'3 6.8
2018-Jul-22 05:59N 29°06' W 090°13'1 2.7
2018-Jul-22 05:30N 29°07' W 090°12'2 0.2
2018-Jul-21 22:38N 29°09' W 090°12'1 3.2
2018-Jul-21 22:28N 29°08' W 090°12'1 0.1
2018-Jul-21 10:58N 29°09' W 090°13'1 2.3
2018-Jul-21 10:30N 29°08' W 090°13'1 1.6
2018-Jul-21 09:51N 29°07' W 090°12'0 0.0
2018-Jul-20 08:03N 29°07' W 090°12'0 0.1
2018-Jul-20 08:00N 29°07' W 090°12'  
Track history (hours):
 
Tides and Currents Weather Stations Pressure Air Temp Water Temp Dewpoint Dewpoint Depression Visibility Wind Speed Wind Dir Waves Ship Positions

Hilda Lab

Owner: LABORDE MARINE SERVICES LLC, MORGAN CITY, LA. More information available from US FCC via Universal Licensing System and Coast Guard Vessel Documentation Center.

Last reported at 2018-Jul-22 06:53 UTC. Time now 2018-Jul-22 12:33 UTC.
Position N 28°59' W 090°13'.

Length 87 m; draft 4 m.

Type: . MMSI: 338536000.

Date/timePositionNaut miles runAvg speedWind from/ knotsBaromVisibWave heightAir tempDewpointWater temp
2018-Jul-22 06:53N 28°59' W 090°13'510.2
2018-Jul-22 06:27N 29°03' W 090°14'3 6.8
2018-Jul-22 05:59N 29°06' W 090°13'1 2.7
2018-Jul-22 05:30N 29°07' W 090°12'2 0.2
2018-Jul-21 22:38N 29°09' W 090°12'1 3.2
2018-Jul-21 22:28N 29°08' W 090°12'1 0.1
2018-Jul-21 10:58N 29°09' W 090°13'1 2.3
2018-Jul-21 10:30N 29°08' W 090°13'1 1.6
2018-Jul-21 09:51N 29°07' W 090°12'0 0.0
2018-Jul-20 08:03N 29°07' W 090°12'0 0.1
2018-Jul-20 08:00N 29°07' W 090°12'  

Dump ship's entire track history